Time;durP1;ratioP1;P1;durP2;ratioP2;P2;SDS_P1;SDS_P2;PMS_P1;PMS_P2;Temp;Humidity;BMP_temperature;BMP_pressure;BME280_temperature;BME280_humidity;BME280_pressure;Samples;Min_cycle;Max_cycle;Signal;HPM_P1;HPM_P2
2023/01/09 00:00:16;;;;;;;1.30;1.30;;;;;;;3.44;100.00;100511.97;5032196;28;20203;-73
2023/01/09 00:02:43;;;;;;;1.80;1.70;;;;;;;3.43;100.00;100502.50;4984105;28;20211;-73
2023/01/09 00:05:11;;;;;;;3.10;1.73;;;;;;;3.47;100.00;100494.19;5050747;28;20286;-73
2023/01/09 00:07:38;;;;;;;0.90;0.90;;;;;;;3.54;100.00;100497.03;5050654;28;20204;-73
2023/01/09 00:10:06;;;;;;;1.00;1.00;;;;;;;3.39;100.00;100499.72;5050677;28;20195;-73
2023/01/09 00:12:34;;;;;;;1.43;1.43;;;;;;;3.42;100.00;100511.00;5050923;28;20208;-73
2023/01/09 00:15:00;;;;;;;0.70;0.70;;;;;;;3.47;100.00;100508.66;5050619;28;20200;-74
2023/01/09 00:17:29;;;;;;;0.70;0.70;;;;;;;3.45;100.00;100495.78;5050588;28;20235;-73
2023/01/09 00:19:57;;;;;;;0.87;0.87;;;;;;;3.50;100.00;100513.94;5050845;28;20199;-73
2023/01/09 00:22:24;;;;;;;0.83;0.83;;;;;;;3.17;100.00;100487.53;5050528;28;20208;-73
2023/01/09 00:24:51;;;;;;;1.80;1.63;;;;;;;3.47;100.00;100501.88;5051500;28;20196;-73
2023/01/09 00:27:17;;;;;;;0.80;0.80;;;;;;;3.28;100.00;100506.84;5054664;28;20305;-73
2023/01/09 00:29:45;;;;;;;0.80;0.80;;;;;;;3.29;100.00;100502.63;5054358;28;20203;-73
2023/01/09 00:32:12;;;;;;;0.70;0.70;;;;;;;3.40;100.00;100502.38;5054368;28;20210;-73
2023/01/09 00:34:41;;;;;;;0.80;0.80;;;;;;;3.35;100.00;100501.25;5054384;28;20203;-73
2023/01/09 00:37:10;;;;;;;1.00;1.00;;;;;;;3.25;100.00;100505.81;5054157;28;20223;-73
2023/01/09 00:39:37;;;;;;;1.20;1.20;;;;;;;3.38;100.00;100500.53;5054143;28;20294;-73
2023/01/09 00:42:06;;;;;;;2.40;2.30;;;;;;;3.02;100.00;100467.94;5054097;28;20231;-74
2023/01/09 00:44:38;;;;;;;6.03;1.90;;;;;;;3.23;100.00;100492.97;5054391;28;20257;-74
2023/01/09 00:47:11;;;;;;;1.37;1.33;;;;;;;3.04;100.00;100453.50;5054069;28;20296;-74
2023/01/09 00:49:42;;;;;;;0.80;0.80;;;;;;;3.30;100.00;100482.22;5053894;28;20199;-74
2023/01/09 00:52:11;;;;;;;0.70;0.70;;;;;;;3.40;100.00;100480.97;5053945;28;20210;-74
2023/01/09 00:54:38;;;;;;;0.80;0.80;;;;;;;3.20;100.00;100480.00;5053897;28;20215;-74
2023/01/09 00:57:05;;;;;;;0.80;0.80;;;;;;;3.37;100.00;100475.69;5053774;28;20223;-74
2023/01/09 00:59:33;;;;;;;0.83;0.83;;;;;;;3.37;100.00;100481.72;5053840;28;20203;-74
2023/01/09 01:02:00;;;;;;;0.87;0.87;;;;;;;2.74;100.00;100376.94;5053680;28;20215;-73
2023/01/09 01:10:15;;;;;;;0.80;0.80;;;;;;;3.57;100.00;100463.88;5011969;28;20792;-73
2023/01/09 01:12:43;;;;;;;0.80;0.80;;;;;;;3.57;100.00;100462.16;5011739;28;20243;-73
2023/01/09 01:15:11;;;;;;;0.80;0.80;;;;;;;3.54;100.00;100458.59;5012049;28;20310;-73
2023/01/09 01:17:40;;;;;;;1.30;1.30;;;;;;;3.40;100.00;100451.09;5011694;28;20711;-73
2023/01/09 01:20:10;;;;;;;3.53;3.23;;;;;;;3.26;100.00;100420.47;5011898;28;20304;-73
2023/01/09 01:22:41;;;;;;;0.70;0.70;;;;;;;3.37;100.00;100429.56;5011778;28;20200;-73
2023/01/09 01:25:08;;;;;;;1.20;1.20;;;;;;;3.40;100.00;100445.97;5011624;28;20232;-74
2023/01/09 01:27:35;;;;;;;0.90;0.90;;;;;;;3.39;100.00;100448.47;5011828;28;20205;-73
2023/01/09 01:30:02;;;;;;;0.80;0.80;;;;;;;3.42;100.00;100439.22;4963243;28;20208;-73
2023/01/09 01:32:29;;;;;;;2.60;2.50;;;;;;;3.28;100.00;100440.25;5011995;28;20205;-73
2023/01/09 01:34:56;;;;;;;0.70;0.70;;;;;;;3.36;100.00;100438.94;5011427;28;20201;-73
2023/01/09 01:37:23;;;;;;;1.10;1.10;;;;;;;2.85;100.00;100331.38;5010990;28;20661;-73
2023/01/09 01:39:51;;;;;;;1.00;1.00;;;;;;;3.43;100.00;100415.38;5011426;28;20227;-73
2023/01/09 01:42:18;;;;;;;0.60;0.60;;;;;;;3.46;100.00;100428.34;5017474;28;20203;-73
2023/01/09 01:45:07;;;;;;;1.23;1.23;;;;;;;2.94;100.00;100321.56;5052968;28;20202;-73
2023/01/09 01:47:42;;;;;;;0.90;0.90;;;;;;;3.38;100.00;100400.59;5053012;28;20191;-73
2023/01/09 01:50:16;;;;;;;0.60;0.60;;;;;;;3.36;100.00;100391.94;5053086;28;20214;-73
2023/01/09 01:52:47;;;;;;;1.10;1.10;;;;;;;3.45;100.00;100418.91;5018075;28;20203;-73
2023/01/09 01:55:17;;;;;;;0.90;0.90;;;;;;;3.49;100.00;100419.94;5034084;28;20191;-74
2023/01/09 01:57:48;;;;;;;0.73;0.73;;;;;;;3.34;100.00;100396.13;5052503;28;20231;-73
2023/01/09 02:00:16;;;;;;;0.80;0.80;;;;;;;3.40;100.00;100399.84;5052555;28;20207;-73
2023/01/09 02:02:44;;;;;;;0.90;0.90;;;;;;;3.40;100.00;100412.66;5052528;28;20575;-74
2023/01/09 02:05:11;;;;;;;1.87;1.87;;;;;;;3.33;100.00;100405.50;5052459;28;20253;-73
2023/01/09 02:07:38;;;;;;;1.23;1.23;;;;;;;3.32;100.00;100401.16;5052289;28;20207;-73
2023/01/09 02:10:06;;;;;;;0.80;0.80;;;;;;;3.28;100.00;100383.03;5052558;28;20218;-73
2023/01/09 02:12:34;;;;;;;1.20;1.20;;;;;;;3.35;100.00;100396.19;5017794;28;20207;-73
2023/01/09 02:15:06;;;;;;;0.70;0.70;;;;;;;3.02;100.00;100337.31;5052125;28;20200;-73
2023/01/09 02:18:00;;;;;;;0.90;0.90;;;;;;;3.38;100.00;100388.66;5052137;28;20231;-73
2023/01/09 02:20:39;;;;;;;0.60;0.60;;;;;;;3.37;100.00;100398.81;5052193;28;20218;-73
2023/01/09 02:23:57;;;;;;;0.90;0.90;;;;;;;3.42;100.00;100393.09;5017757;28;20195;-73
2023/01/09 02:26:52;;;;;;;0.90;0.90;;;;;;;3.38;100.00;100393.78;5052004;28;20227;-73
2023/01/09 02:30:07;;;;;;;0.77;0.77;;;;;;;3.26;100.00;100379.47;5052363;28;20265;-73
2023/01/09 02:33:06;;;;;;;1.93;1.83;;;;;;;3.30;100.00;100389.09;5051913;28;20227;-73
2023/01/09 02:35:49;;;;;;;0.70;0.70;;;;;;;3.23;100.00;100390.47;5052031;28;20202;-73
2023/01/09 02:38:24;;;;;;;0.70;0.70;;;;;;;3.16;100.00;100382.41;5052288;28;20223;-73
2023/01/09 02:40:57;;;;;;;1.10;1.10;;;;;;;3.07;100.00;100382.81;5051960;28;20195;-73
2023/01/09 02:43:25;;;;;;;0.70;0.70;;;;;;;2.88;100.00;100365.69;5052019;28;20196;-73
2023/01/09 02:45:52;;;;;;;0.90;0.90;;;;;;;2.30;100.00;100300.47;5052123;28;20609;-73
2023/01/09 02:48:20;;;;;;;0.90;0.90;;;;;;;3.03;100.00;100396.31;5032750;28;20214;-74
2023/01/09 02:50:55;;;;;;;0.70;0.70;;;;;;;3.06;100.00;100383.66;5052129;28;20196;-73
2023/01/09 02:53:42;;;;;;;0.60;0.60;;;;;;;3.09;100.00;100383.81;5051768;28;20199;-73
2023/01/09 02:56:24;;;;;;;0.60;0.60;;;;;;;3.06;100.00;100373.41;5051963;28;20203;-73
2023/01/09 02:59:10;;;;;;;0.80;0.80;;;;;;;3.07;100.00;100384.53;5016649;28;20234;-73
2023/01/09 03:01:50;;;;;;;1.70;1.53;;;;;;;3.03;100.00;100370.69;5051751;28;20196;-73
2023/01/09 03:04:24;;;;;;;0.70;0.70;;;;;;;3.04;100.00;100341.69;5051645;28;20203;-73
2023/01/09 03:06:58;;;;;;;0.70;0.70;;;;;;;3.10;100.00;100352.28;5051641;28;20199;-73
2023/01/09 03:09:29;;;;;;;1.47;1.47;;;;;;;3.13;100.00;100372.91;5051433;28;20691;-74
2023/01/09 03:12:01;;;;;;;0.80;0.80;;;;;;;3.17;100.00;100364.56;5051345;28;20207;-73
2023/01/09 03:14:32;;;;;;;0.93;0.93;;;;;;;3.26;100.00;100367.56;5051618;28;20199;-73
2023/01/09 03:17:06;;;;;;;0.70;0.70;;;;;;;2.70;100.00;100284.53;5051218;28;20223;-73
2023/01/09 03:19:35;;;;;;;1.27;1.27;;;;;;;3.03;100.00;100367.25;5032661;28;20195;-73
2023/01/09 03:22:02;;;;;;;0.90;0.90;;;;;;;3.06;100.00;100370.84;5051246;28;20195;-73
2023/01/09 03:24:29;;;;;;;2.87;1.60;;;;;;;3.06;100.00;100352.91;5051160;28;20195;-73
2023/01/09 03:26:56;;;;;;;0.67;0.67;;;;;;;3.08;100.00;100358.97;5016512;28;20706;-73
2023/01/09 03:29:23;;;;;;;1.00;1.00;;;;;;;2.71;100.00;100319.59;5051107;28;20214;-73
2023/01/09 03:31:50;;;;;;;1.10;1.10;;;;;;;2.95;100.00;100369.44;5051194;28;20218;-73
2023/01/09 03:34:16;;;;;;;0.80;0.80;;;;;;;2.84;100.00;100362.91;5051202;28;20204;-74
2023/01/09 03:36:44;;;;;;;0.80;0.80;;;;;;;2.91;100.00;100354.72;5050993;28;20192;-74
2023/01/09 03:39:11;;;;;;;0.67;0.67;;;;;;;2.98;100.00;100351.66;5050730;28;20223;-73
2023/01/09 03:41:38;;;;;;;0.70;0.70;;;;;;;3.06;100.00;100352.91;5016167;28;20195;-73
2023/01/09 03:44:05;;;;;;;0.70;0.70;;;;;;;3.12;100.00;100353.19;5050732;28;20202;-75
2023/01/09 03:46:32;;;;;;;1.73;1.73;;;;;;;3.04;100.00;100356.19;5051023;28;20201;-73
2023/01/09 03:48:58;;;;;;;0.90;0.90;;;;;;;3.17;100.00;100364.56;5051016;28;20199;-73
2023/01/09 03:51:25;;;;;;;0.60;0.60;;;;;;;3.14;100.00;100356.72;5051045;28;20203;-74
2023/01/09 03:53:53;;;;;;;0.70;0.70;;;;;;;3.16;100.00;100357.69;5050922;28;20203;-74
2023/01/09 03:56:20;;;;;;;0.70;0.70;;;;;;;3.18;100.00;100366.31;5050704;28;20202;-74
2023/01/09 03:58:48;;;;;;;0.70;0.70;;;;;;;3.07;100.00;100356.38;5051448;28;20706;-74
2023/01/09 04:01:15;;;;;;;3.17;2.60;;;;;;;2.99;100.00;100364.56;5055034;28;20195;-74
2023/01/09 04:03:42;;;;;;;1.60;1.60;;;;;;;2.81;100.00;100357.63;5055034;28;20192;-74
2023/01/09 04:06:09;;;;;;;1.10;1.10;;;;;;;2.92;100.00;100356.47;5054728;28;20207;-74
2023/01/09 04:08:36;;;;;;;0.80;0.80;;;;;;;2.88;100.00;100357.13;5019871;28;20202;-74
2023/01/09 04:11:04;;;;;;;1.00;1.00;;;;;;;3.04;100.00;100357.06;5054852;28;20199;-74
2023/01/09 04:13:31;;;;;;;2.70;2.60;;;;;;;2.93;100.00;100364.22;5054857;28;20597;-74
2023/01/09 04:15:58;;;;;;;0.70;0.70;;;;;;;2.91;100.00;100370.09;5054868;28;20206;-73
2023/01/09 04:18:24;;;;;;;0.70;0.70;;;;;;;2.83;100.00;100367.13;5054868;28;20231;-74
2023/01/09 04:20:51;;;;;;;1.33;1.33;;;;;;;2.83;100.00;100363.69;5054556;28;20203;-74
2023/01/09 04:23:18;;;;;;;0.60;0.60;;;;;;;2.86;100.00;100371.53;5054533;28;20214;-74
2023/01/09 04:25:46;;;;;;;0.70;0.70;;;;;;;2.94;100.00;100375.34;5054340;28;20231;-75
2023/01/09 04:28:14;;;;;;;3.40;2.20;;;;;;;2.99;100.00;100368.78;5054208;28;20286;-74
2023/01/09 04:30:41;;;;;;;1.70;1.60;;;;;;;2.82;100.00;100372.16;5054476;28;20223;-73
2023/01/09 04:33:08;;;;;;;2.30;2.20;;;;;;;2.86;100.00;100377.53;5054322;28;20203;-74
2023/01/09 04:35:34;;;;;;;0.77;0.77;;;;;;;2.76;100.00;100382.09;5054162;28;20274;-74
2023/01/09 04:38:01;;;;;;;1.83;1.83;;;;;;;2.78;100.00;100378.81;5054135;28;20585;-74
2023/01/09 04:40:28;;;;;;;0.87;0.87;;;;;;;2.89;100.00;100376.81;5054372;28;20195;-74
2023/01/09 04:42:55;;;;;;;2.10;2.00;;;;;;;2.80;100.00;100356.75;5053976;28;20570;-73
2023/01/09 04:45:23;;;;;;;0.70;0.70;;;;;;;2.95;100.00;100377.13;5035618;28;20222;-74
2023/01/09 04:47:50;;;;;;;0.80;0.80;;;;;;;2.89;100.00;100364.88;5053916;28;20208;-74
2023/01/09 04:50:17;;;;;;;0.90;0.90;;;;;;;2.92;100.00;100364.16;5053938;28;20666;-74
2023/01/09 04:52:43;;;;;;;0.80;0.80;;;;;;;2.95;100.00;100372.88;5054066;28;20206;-74
2023/01/09 04:55:10;;;;;;;0.83;0.83;;;;;;;2.93;100.00;100374.47;5053909;28;20196;-74
2023/01/09 04:57:38;;;;;;;0.57;0.57;;;;;;;2.80;100.00;100366.09;5053806;28;20673;-74
2023/01/09 05:00:08;;;;;;;0.70;0.70;;;;;;;2.89;100.00;100362.31;5053746;28;20204;-74
2023/01/09 05:02:37;;;;;;;0.93;0.93;;;;;;;3.00;100.00;100393.56;5053828;28;20290;-74
2023/01/09 05:05:04;;;;;;;1.10;1.10;;;;;;;2.92;100.00;100382.97;5053707;28;20694;-74
2023/01/09 05:07:31;;;;;;;1.87;1.70;;;;;;;2.96;100.00;100396.81;5053759;28;20195;-74
2023/01/09 05:09:58;;;;;;;0.87;0.87;;;;;;;2.87;100.00;100396.34;5053415;28;20204;-74
2023/01/09 05:12:25;;;;;;;0.70;0.70;;;;;;;2.46;100.00;100343.06;5034495;28;20195;-74
2023/01/09 05:14:51;;;;;;;0.50;0.50;;;;;;;2.81;100.00;100396.03;5053469;28;20195;-74
2023/01/09 05:17:18;;;;;;;0.70;0.70;;;;;;;2.80;100.00;100366.09;5053725;28;20206;-75
2023/01/09 05:19:46;;;;;;;0.77;0.77;;;;;;;2.78;100.00;100389.06;5053245;28;20219;-75
2023/01/09 05:22:13;;;;;;;1.10;1.10;;;;;;;2.71;100.00;100368.22;5053174;28;20200;-74
2023/01/09 05:24:40;;;;;;;0.80;0.80;;;;;;;2.84;100.00;100375.69;5053104;28;20199;-72
2023/01/09 05:27:07;;;;;;;0.80;0.80;;;;;;;2.88;100.00;100383.63;5053268;28;20260;-72
2023/01/09 05:29:34;;;;;;;0.77;0.77;;;;;;;2.79;100.00;100359.22;5018508;28;20203;-72
2023/01/09 05:32:01;;;;;;;1.00;1.00;;;;;;;2.70;100.00;100379.25;5034739;28;20721;-75
2023/01/09 05:34:27;;;;;;;0.80;0.80;;;;;;;2.65;100.00;100357.66;5053291;28;20588;-75
2023/01/09 05:36:56;;;;;;;0.60;0.60;;;;;;;2.89;100.00;100376.81;5053038;28;20210;-73
2023/01/09 05:39:22;;;;;;;1.80;1.80;;;;;;;2.91;100.00;100376.09;5052999;28;20223;-73
2023/01/09 05:41:49;;;;;;;0.60;0.60;;;;;;;2.90;100.00;100373.44;5053128;28;20705;-73
2023/01/09 05:44:16;;;;;;;1.20;1.20;;;;;;;2.83;100.00;100377.38;5052969;28;20285;-74
2023/01/09 05:46:43;;;;;;;2.63;2.53;;;;;;;2.84;100.00;100368.03;5052888;28;20321;-73
2023/01/09 05:49:10;;;;;;;1.10;1.10;;;;;;;2.90;100.00;100373.44;5052948;28;20608;-74
2023/01/09 05:51:36;;;;;;;0.70;0.70;;;;;;;2.84;100.00;100347.53;5052738;28;20203;-73
2023/01/09 05:54:06;;;;;;;1.00;1.00;;;;;;;3.05;100.00;100361.41;5052836;28;20195;-74
2023/01/09 05:56:33;;;;;;;0.70;0.70;;;;;;;2.94;100.00;100370.22;5052940;28;20619;-73
2023/01/09 05:58:59;;;;;;;0.80;0.80;;;;;;;2.92;100.00;100366.72;5052606;28;20242;-73
2023/01/09 06:01:26;;;;;;;0.80;0.80;;;;;;;2.92;100.00;100348.81;5052913;28;20199;-74
2023/01/09 06:03:53;;;;;;;0.77;0.77;;;;;;;2.88;100.00;100340.09;5052609;28;20599;-74
2023/01/09 06:06:20;;;;;;;0.90;0.90;;;;;;;2.87;100.00;100363.03;5052743;28;20199;-74
2023/01/09 06:08:47;;;;;;;1.00;1.00;;;;;;;2.76;100.00;100339.47;5052645;28;20214;-74
2023/01/09 06:11:15;;;;;;;0.60;0.60;;;;;;;2.89;100.00;100357.19;5052659;28;20208;-74
2023/01/09 06:13:41;;;;;;;0.90;0.90;;;;;;;2.94;100.00;100371.13;5052584;28;20218;-73
2023/01/09 06:16:08;;;;;;;0.70;0.70;;;;;;;2.89;100.00;100357.19;5052173;28;20211;-74
2023/01/09 06:18:35;;;;;;;0.87;0.87;;;;;;;2.97;100.00;100361.00;5051972;28;20710;-74
2023/01/09 06:21:02;;;;;;;0.90;0.90;;;;;;;3.01;100.00;100356.91;5052295;28;20207;-73
2023/01/09 06:23:28;;;;;;;0.87;0.87;;;;;;;3.02;100.00;100348.44;5047396;28;20218;-73
2023/01/09 06:25:55;;;;;;;0.80;0.80;;;;;;;3.00;100.00;100344.91;5051823;28;20242;-74
2023/01/09 06:28:23;;;;;;;0.80;0.80;;;;;;;3.13;100.00;100354.97;5033510;28;20214;-76
2023/01/09 06:30:51;;;;;;;2.03;1.93;;;;;;;2.77;100.00;100340.34;5051761;28;20199;-75
2023/01/09 06:33:19;;;;;;;1.00;1.00;;;;;;;2.82;100.00;100357.69;5051726;28;20235;-74
2023/01/09 06:35:45;;;;;;;0.70;0.70;;;;;;;2.60;100.00;100338.63;5051926;28;20195;-73
2023/01/09 06:38:12;;;;;;;1.00;1.00;;;;;;;2.15;100.00;100256.19;5051555;28;20195;-73
2023/01/09 06:40:39;;;;;;;1.30;1.30;;;;;;;2.49;100.00;100328.75;5051995;28;20277;-73
2023/01/09 06:43:06;;;;;;;7.73;2.63;;;;;;;2.57;100.00;100330.81;5051836;28;20204;-74
2023/01/09 06:45:34;;;;;;;0.90;0.90;;;;;;;2.63;100.00;100351.59;5051828;28;20203;-73
2023/01/09 06:48:01;;;;;;;0.80;0.80;;;;;;;2.60;100.00;100359.13;5051672;28;20219;-76
2023/01/09 06:50:28;;;;;;;0.90;0.90;;;;;;;2.79;100.00;100354.97;5051603;28;20203;-76
2023/01/09 06:52:54;;;;;;;0.90;0.90;;;;;;;2.76;100.00;100362.50;5051569;28;20748;-75
2023/01/09 06:55:21;;;;;;;0.50;0.50;;;;;;;2.72;100.00;100344.34;5051423;28;20591;-71
2023/01/09 06:57:48;;;;;;;3.13;3.03;;;;;;;2.90;100.00;100356.41;5051451;28;20195;-71
2023/01/09 07:00:15;;;;;;;0.90;0.90;;;;;;;2.83;100.00;100344.09;5032748;28;20227;-74
2023/01/09 07:02:44;;;;;;;1.00;1.00;;;;;;;2.76;100.00;100342.03;5051733;28;20210;-76
2023/01/09 07:05:11;;;;;;;1.23;1.23;;;;;;;2.75;100.00;100335.16;5039349;28;20606;-78
2023/01/09 07:07:38;;;;;;;5.47;5.13;;;;;;;2.63;100.00;100336.22;5049905;28;20196;-74
2023/01/09 07:10:06;;;;;;;0.80;0.80;;;;;;;2.85;100.00;100331.38;5040801;28;20208;-73
2023/01/09 07:12:33;;;;;;;1.00;1.00;;;;;;;2.81;100.00;100335.47;5013468;28;20214;-75
2023/01/09 07:15:00;;;;;;;1.20;1.20;;;;;;;2.76;100.00;100313.88;5051013;28;20203;-74
2023/01/09 07:17:26;;;;;;;0.80;0.80;;;;;;;3.11;100.00;100343.75;5050896;28;20199;-74
2023/01/09 07:19:55;;;;;;;0.80;0.80;;;;;;;3.26;100.00;100344.50;5051042;28;20223;-78
2023/01/09 07:22:21;;;;;;;0.70;0.70;;;;;;;3.37;100.00;100343.34;5063634;28;20203;-74
2023/01/09 07:24:48;;;;;;;1.20;1.20;;;;;;;3.21;100.00;100345.94;5052111;28;20215;-74
2023/01/09 07:27:15;;;;;;;4.10;3.87;;;;;;;3.11;100.00;100327.50;5050953;28;20199;-74
2023/01/09 07:29:42;;;;;;;1.00;1.00;;;;;;;2.64;100.00;100250.97;5053873;28;20199;-75
2023/01/09 07:32:08;;;;;;;0.90;0.90;;;;;;;3.20;100.00;100328.84;5059148;28;20218;-75
2023/01/09 07:34:35;;;;;;;1.03;1.03;;;;;;;3.11;100.00;100330.94;5054447;28;20195;-74
2023/01/09 07:37:03;;;;;;;0.70;0.70;;;;;;;3.30;100.00;100315.66;5071172;28;20210;-75
2023/01/09 07:39:30;;;;;;;0.60;0.60;;;;;;;3.32;100.00;100314.03;5056701;28;20616;-75
2023/01/09 07:41:57;;;;;;;0.80;0.80;;;;;;;3.56;100.00;100313.44;5062036;28;20208;-75
2023/01/09 07:44:24;;;;;;;0.80;0.80;;;;;;;3.80;100.00;100322.25;5050868;28;20207;-75
2023/01/09 07:46:50;;;;;;;0.70;0.70;;;;;;;3.79;100.00;100307.66;5041289;28;20265;-75
2023/01/09 07:49:17;;;;;;;0.80;0.80;;;;;;;3.92;100.00;100322.81;5060259;28;20206;-75
2023/01/09 07:51:44;;;;;;;0.80;0.80;;;;;;;3.69;100.00;100341.38;5050881;28;20195;-75
2023/01/09 07:54:12;;;;;;;1.00;1.00;;;;;;;3.79;100.00;100334.19;5064651;28;20230;-74
2023/01/09 07:56:39;;;;;;;0.80;0.80;;;;;;;3.91;100.00;100341.56;5064406;28;20231;-74
2023/01/09 07:59:07;;;;;;;0.90;0.90;;;;;;;4.06;100.00;100344.84;5063163;28;20378;-75
2023/01/09 08:01:33;;;;;;;1.30;1.30;;;;;;;3.60;100.00;100343.53;5051785;28;20202;-75
2023/01/09 08:04:00;;;;;;;1.00;1.00;;;;;;;3.56;100.00;100316.88;5061369;28;20203;-75
2023/01/09 08:06:27;;;;;;;1.90;1.80;;;;;;;3.28;100.00;100327.50;5053704;28;20207;-74
2023/01/09 08:08:54;;;;;;;3.70;1.67;;;;;;;3.08;100.00;100329.91;5050414;28;20601;-74
2023/01/09 08:11:22;;;;;;;1.10;1.10;;;;;;;3.22;100.00;100311.84;5064541;28;20202;-74
2023/01/09 08:13:49;;;;;;;3.63;3.30;;;;;;;3.35;100.00;100303.06;5039399;28;20207;-75
2023/01/09 08:16:16;;;;;;;0.80;0.80;;;;;;;3.72;100.00;100321.00;5056957;28;20647;-75
2023/01/09 08:18:43;;;;;;;0.80;0.80;;;;;;;3.79;100.00;100312.78;5029345;28;20207;-76
2023/01/09 08:21:11;;;;;;;0.77;0.77;;;;;;;3.62;100.00;100294.09;5053141;28;20215;-75
2023/01/09 08:23:38;;;;;;;0.60;0.60;;;;;;;3.35;100.00;100236.44;5059649;28;20203;-75
2023/01/09 08:26:05;;;;;;;0.70;0.70;;;;;;;3.93;100.00;100319.41;5049167;28;20238;-75
2023/01/09 08:28:33;;;;;;;0.80;0.80;;;;;;;4.00;100.00;100326.59;5037599;28;20605;-75
2023/01/09 08:31:00;;;;;;;0.83;0.83;;;;;;;4.09;100.00;100334.69;5050476;28;20211;-75
2023/01/09 08:33:26;;;;;;;0.80;0.80;;;;;;;4.33;100.00;100325.50;5050374;28;20196;-78
2023/01/09 08:35:54;;;;;;;0.73;0.73;;;;;;;4.56;100.00;100320.50;5050522;28;20204;-75
2023/01/09 08:38:21;;;;;;;0.90;0.90;;;;;;;4.67;100.00;100326.97;5050323;28;20199;-74
2023/01/09 08:40:48;;;;;;;0.80;0.80;;;;;;;4.71;100.00;100326.28;5050361;28;20314;-75
2023/01/09 08:48:46;;;;;;;0.80;0.80;;;;;;;4.82;100.00;100343.88;5054112;28;20203;-75
2023/01/09 08:51:13;;;;;;;0.80;0.80;;;;;;;5.07;100.00;100340.63;5054213;28;20207;-76
2023/01/09 08:53:40;;;;;;;0.80;0.80;;;;;;;4.93;100.00;100352.91;5054085;28;20624;-76
2023/01/09 08:56:08;;;;;;;0.80;0.80;;;;;;;4.99;100.00;100349.72;5054118;28;20218;-75
2023/01/09 08:58:35;;;;;;;0.80;0.80;;;;;;;5.18;100.00;100359.94;5054048;28;20235;-75
2023/01/09 09:01:06;;;;;;;1.10;1.10;;;;;;;5.38;100.00;100364.19;5053779;28;20223;-74
2023/01/09 09:03:33;;;;;;;0.90;0.90;;;;;;;5.30;100.00;100339.88;5054066;28;20212;-74
2023/01/09 09:06:00;;;;;;;0.80;0.80;;;;;;;4.94;100.00;100357.25;5018922;28;20195;-75
2023/01/09 09:08:27;;;;;;;1.00;1.00;;;;;;;4.90;100.00;100341.63;5035147;28;20623;-74
2023/01/09 09:10:53;;;;;;;0.70;0.70;;;;;;;5.21;100.00;100360.06;5053540;28;20203;-74
2023/01/09 09:13:20;;;;;;;0.80;0.80;;;;;;;5.23;100.00;100358.44;5053649;28;20207;-74
2023/01/09 09:15:47;;;;;;;1.60;1.60;;;;;;;5.33;100.00;100362.25;5053507;28;20698;-74
2023/01/09 09:18:15;;;;;;;3.27;1.57;;;;;;;5.32;100.00;100347.63;5053403;28;20666;-74
2023/01/09 09:20:42;;;;;;;8.10;5.63;;;;;;;5.27;100.00;100347.47;5053413;28;20298;-75
2023/01/09 09:23:08;;;;;;;0.80;0.80;;;;;;;5.39;100.00;100322.22;5053376;28;20616;-75
2023/01/09 09:25:37;;;;;;;0.90;0.90;;;;;;;4.87;100.00;100247.34;5053365;28;20239;-75
2023/01/09 09:28:04;;;;;;;1.60;1.60;;;;;;;4.83;100.00;100247.16;5053325;28;20199;-74
2023/01/09 09:30:31;;;;;;;1.93;1.83;;;;;;;5.29;100.00;100343.25;5051359;28;20206;-75
2023/01/09 09:32:57;;;;;;;1.00;0.97;;;;;;;5.31;100.00;100320.19;5053158;28;20203;-75
2023/01/09 09:35:27;;;;;;;0.70;0.70;;;;;;;5.50;100.00;100331.25;5053234;28;20203;-75
2023/01/09 09:37:55;;;;;;;1.53;1.47;;;;;;;5.49;100.00;100319.19;5053134;28;20210;-75
2023/01/09 09:40:35;;;;;;;1.53;1.43;;;;;;;4.70;100.00;100183.28;5053116;28;20227;-74
2023/01/09 09:46:15;;;;;;;0.80;0.80;;;;;;;5.27;100.00;100306.34;5053000;28;20281;-75
2023/01/09 09:48:50;;;;;;;0.87;0.87;;;;;;;5.32;100.00;100297.09;5053098;28;20207;-75
2023/01/09 09:51:50;;;;;;;0.77;0.77;;;;;;;5.64;100.00;100297.44;5052901;28;20203;-75
2023/01/09 10:10:35;;;;;;;0.70;0.70;;;;;;;5.84;100.00;100273.38;5113090;27;20567;-86
2023/01/09 10:14:03;;;;;;;0.60;0.60;;;;;;;5.80;100.00;100276.63;5085048;28;20206;-88
2023/01/09 10:16:00;;;;;;;0.70;0.70;;;;;;;5.77;100.00;100297.09;5076819;28;20264;-89
2023/01/09 10:18:40;;;;;;;0.70;0.70;;;;;;;5.75;100.00;100289.31;5079539;28;20222;-92
2023/01/09 10:21:12;;;;;;;4.13;2.60;;;;;;;5.72;100.00;100283.19;5090326;28;20206;-86
2023/01/09 10:24:07;;;;;;;1.53;1.53;;;;;;;5.75;100.00;100283.28;5074274;28;20191;-91
2023/01/09 10:26:42;;;;;;;1.07;1.07;;;;;;;5.52;100.00;100290.16;5070553;28;20214;-84
2023/01/09 10:29:29;;;;;;;0.70;0.70;;;;;;;5.53;100.00;100255.91;5077606;28;20209;-85
2023/01/09 10:32:10;;;;;;;1.40;1.20;;;;;;;5.35;100.00;100271.50;5082245;28;20218;-82
2023/01/09 10:34:51;;;;;;;8.23;2.60;;;;;;;5.34;100.00;100261.19;5067042;28;20227;-80
2023/01/09 10:37:23;;;;;;;2.20;2.10;;;;;;;5.38;100.00;100261.38;5067178;28;20615;-83
2023/01/09 10:39:54;;;;;;;0.70;0.70;;;;;;;5.55;100.00;100249.13;5066674;28;20347;-77
2023/01/09 10:42:32;;;;;;;1.17;1.17;;;;;;;5.64;100.00;100252.03;5066957;28;20203;-82
2023/01/09 10:45:06;;;;;;;0.97;0.97;;;;;;;5.36;100.00;100249.25;5080911;28;20259;-81
2023/01/09 10:47:34;;;;;;;0.90;0.90;;;;;;;4.99;100.00;100227.25;5087042;28;20229;-81
2023/01/09 10:50:14;;;;;;;0.80;0.80;;;;;;;4.77;100.00;100246.91;5073351;28;20710;-82
2023/01/09 10:52:42;;;;;;;4.20;3.93;;;;;;;4.73;100.00;100235.63;5066617;28;20282;-80
2023/01/09 10:55:18;;;;;;;0.60;0.60;;;;;;;5.01;100.00;100219.63;5080473;28;20688;-79
2023/01/09 10:57:50;;;;;;;0.60;0.60;;;;;;;5.10;100.00;100219.97;5073781;28;20205;-80
2023/01/09 11:00:20;;;;;;;1.63;1.53;;;;;;;4.94;100.00;100207.34;5072474;28;20207;-84
2023/01/09 11:02:47;;;;;;;0.90;0.90;;;;;;;5.01;100.00;100188.78;5048217;28;20282;-83
2023/01/09 11:05:18;;;;;;;0.70;0.70;;;;;;;5.15;100.00;100204.72;5066456;28;20206;-83
2023/01/09 11:07:49;;;;;;;0.60;0.60;;;;;;;5.11;100.00;100183.19;5050633;28;20607;-87
2023/01/09 11:10:16;;;;;;;0.80;0.80;;;;;;;5.28;100.00;100194.97;5086352;28;20239;-86
2023/01/09 11:12:43;;;;;;;1.00;1.00;;;;;;;5.32;100.00;100203.66;5087270;28;20195;-84
2023/01/09 11:15:31;;;;;;;1.80;1.53;;;;;;;5.42;100.00;100137.22;5082805;28;20210;-86
2023/01/09 11:18:17;;;;;;;0.70;0.70;;;;;;;5.72;100.00;100131.41;5074488;28;20211;-82
2023/01/09 11:20:44;;;;;;;0.90;0.90;;;;;;;5.28;100.00;100125.56;5073258;28;20208;-91
2023/01/09 11:23:25;;;;;;;0.70;0.70;;;;;;;5.59;100.00;100152.41;5072790;28;20233;-88
2023/01/09 11:25:54;;;;;;;0.70;0.70;;;;;;;5.70;100.00;100148.50;5073327;28;20198;-84
2023/01/09 11:28:21;;;;;;;0.80;0.80;;;;;;;5.65;100.00;100134.59;5086904;28;20206;-90
2023/01/09 11:30:59;;;;;;;0.70;0.70;;;;;;;5.58;100.00;100151.53;5085509;28;20210;-85
2023/01/09 11:33:28;;;;;;;0.70;0.70;;;;;;;5.48;100.00;100150.31;5093173;28;20354;-90
2023/01/09 11:35:59;;;;;;;5.93;4.03;;;;;;;5.06;100.00;100153.00;5093044;28;20637;-90
2023/01/09 11:38:26;;;;;;;1.00;1.00;;;;;;;4.77;100.00;100139.03;5080749;28;20226;-90
2023/01/09 11:40:56;;;;;;;0.80;0.80;;;;;;;4.94;100.00;100150.84;5077030;28;20589;-91
2023/01/09 11:43:36;;;;;;;0.63;0.63;;;;;;;4.92;100.00;100134.50;5082249;28;20249;-88
2023/01/09 11:46:06;;;;;;;2.37;2.27;;;;;;;4.81;100.00;100144.38;5074062;28;20650;-89
2023/01/09 11:48:39;;;;;;;1.80;1.70;;;;;;;4.96;100.00;100128.63;5073866;28;20199;-82
2023/01/09 11:51:18;;;;;;;0.80;0.80;;;;;;;4.91;100.00;100107.94;5072787;28;20199;-84
2023/01/09 11:54:12;;;;;;;0.80;0.80;;;;;;;5.21;100.00;100133.88;5073452;28;20270;-82
2023/01/09 11:56:40;;;;;;;1.27;1.27;;;;;;;4.91;100.00;100099.34;4993136;28;20209;-89
2023/01/09 11:59:14;;;;;;;0.80;0.80;;;;;;;4.72;100.00;100096.88;4992019;28;20292;-84
2023/01/09 12:02:13;;;;;;;1.00;1.00;;;;;;;4.55;100.00;100103.06;4991118;28;20205;-84
2023/01/09 12:04:48;;;;;;;0.90;0.90;;;;;;;4.78;100.00;100112.56;4913949;29;20208;-85
2023/01/09 12:07:33;;;;;;;1.63;1.53;;;;;;;4.52;100.00;100097.81;4867349;29;20206;-85